KMRY/MRY METAR and TAF weather

Enter ICAO airport designator
Station Type Date Time Source
KMRY METAR 2021/08/02 02:54 UTC NOAA

KMRY 020254Z 28006KT 10SM CLR 19/12 A3008 RMK AO2 SLP198 T01940122 53002 $


Station Type Date Time Source
KMRY Decoded METAR 2021/08/02 02:54 UTC NOAA

MONTEREY PENINSULA AIRPORT, CA, United States (KMRY) 36-35N 121-51W 66M
Aug 01, 2021 - 10:54 PM EDT / 2021.08.02 0254 UTC
Wind: from the W (280 degrees) at 7 MPH (6 KT):0
Visibility: 10 mile(s):0
Sky conditions: clear
Temperature: 66.9 F (19.4 C)
Dew Point: 54.0 F (12.2 C)
Relative Humidity: 63%
Pressure (altimeter): 30.08 in. Hg (1018 hPa)
Pressure tendency: 0.01 inches (0.2 hPa) higher than three hours ago
ob: KMRY 020254Z 28006KT 10SM CLR 19/12 A3008 RMK AO2 SLP198 T01940122 53002
cycle: 3

Station Type Date Time Source
KMRY TAF 2021/08/02 02:27 UTC NOAA

TAF
AMD KMRY 020224Z 0202/0224 27013KT P6SM FEW012
FM020400 VRB05KT P6SM BKN010
FM020900 VRB03KT 6SM BR OVC006
FM021600 VRB04KT 6SM BR OVC009
FM021800 27008KT P6SM BKN012
FM021900 27011KT P6SM FEW012

Example: see airport list